createdAt,value
2022-08-30T00:01:30.252Z,30.88
2022-08-30T00:03:58.619Z,30.73
2022-08-30T00:06:30.444Z,34.22
2022-08-30T00:08:58.252Z,23.67
2022-08-30T00:11:30.214Z,27.33
2022-08-30T00:13:58.363Z,29.75
2022-08-30T00:16:26.822Z,26.27
2022-08-30T00:18:54.608Z,26.73
2022-08-30T00:21:32.079Z,29.00
2022-08-30T00:23:59.230Z,29.90
2022-08-30T00:26:26.985Z,30.52
2022-08-30T00:28:53.800Z,25.30
2022-08-30T00:31:20.634Z,32.47
2022-08-30T00:33:47.453Z,32.05
2022-08-30T00:36:14.526Z,33.38
2022-08-30T00:38:41.996Z,34.45
2022-08-30T00:41:09.205Z,25.60
2022-08-30T00:43:43.688Z,33.92
2022-08-30T00:46:11.058Z,36.47
2022-08-30T00:48:42.304Z,28.50
2022-08-30T00:51:11.829Z,32.80
2022-08-30T00:53:43.029Z,29.80
2022-08-30T00:56:10.624Z,27.08
2022-08-30T00:58:41.583Z,32.15
2022-08-30T01:01:10.863Z,29.95
2022-08-30T01:03:39.121Z,28.17
2022-08-30T01:06:07.774Z,28.77
2022-08-30T01:08:35.493Z,32.83
2022-08-30T01:11:06.698Z,35.28
2022-08-30T01:13:36.250Z,36.35
2022-08-30T01:16:07.415Z,36.38
2022-08-30T01:18:35.903Z,29.35
2022-08-30T01:21:35.225Z,30.20
2022-08-30T01:24:03.351Z,39.47
2022-08-30T01:26:31.271Z,34.42
2022-08-30T01:29:02.302Z,31.70
2022-08-30T01:31:29.507Z,33.70
2022-08-30T01:33:56.903Z,26.85
2022-08-30T01:36:27.764Z,36.05
2022-08-30T01:39:00.174Z,37.08
2022-08-30T01:41:36.153Z,33.35
2022-08-30T01:44:06.563Z,34.05
2022-08-30T01:46:37.507Z,34.67
2022-08-30T01:49:08.288Z,31.77
2022-08-30T01:51:36.057Z,36.42
2022-08-30T01:54:03.874Z,32.55
2022-08-30T01:56:31.484Z,41.33
2022-08-30T01:59:02.545Z,35.80
2022-08-30T02:01:32.356Z,31.80
2022-08-30T02:04:00.261Z,35.05
2022-08-30T02:06:27.658Z,45.90
2022-08-30T02:08:55.158Z,50.60
2022-08-30T02:11:22.676Z,43.47
2022-08-30T02:13:51.053Z,47.90
2022-08-30T02:16:22.999Z,32.45
2022-08-30T02:18:51.801Z,43.78
2022-08-30T02:21:18.953Z,49.45
2022-08-30T02:23:46.307Z,35.55
2022-08-30T02:26:13.971Z,37.58
2022-08-30T02:28:49.957Z,43.10
2022-08-30T02:31:19.557Z,37.63
2022-08-30T02:33:50.549Z,39.85
2022-08-30T02:36:18.280Z,33.78
2022-08-30T02:38:45.322Z,42.40
2022-08-30T02:41:12.172Z,36.15
2022-08-30T02:43:39.165Z,44.13
2022-08-30T02:46:06.628Z,37.58
2022-08-30T02:48:34.290Z,45.17
2022-08-30T02:51:11.502Z,35.78
2022-08-30T02:53:40.028Z,46.95
2022-08-30T02:56:07.431Z,44.92
2022-08-30T02:58:34.937Z,41.53
2022-08-30T03:01:02.215Z,44.70
2022-08-30T03:03:29.237Z,49.13
2022-08-30T03:05:58.827Z,39.60
2022-08-30T03:08:26.090Z,41.45
2022-08-30T03:10:53.335Z,35.92
2022-08-30T03:13:21.302Z,48.10
2022-08-30T03:15:50.513Z,39.45
2022-08-30T03:18:21.694Z,36.13
2022-08-30T03:20:54.095Z,43.17
2022-08-30T03:23:22.289Z,40.72
2022-08-30T03:25:49.601Z,47.10
2022-08-30T03:28:17.132Z,38.28
2022-08-30T03:30:44.077Z,44.05
2022-08-30T03:33:11.527Z,47.03
2022-08-30T03:35:38.577Z,33.40
2022-08-30T03:38:06.614Z,51.58
2022-08-30T03:40:33.835Z,62.78
2022-08-30T03:43:04.047Z,49.92
2022-08-30T03:45:32.883Z,63.05
2022-08-30T03:48:12.125Z,58.55
2022-08-30T03:50:40.645Z,67.28
2022-08-30T03:53:07.845Z,63.38
2022-08-30T03:55:35.180Z,62.20
2022-08-30T03:58:05.270Z,58.83
2022-08-30T04:00:32.132Z,47.58
2022-08-30T04:02:59.068Z,56.88
2022-08-30T04:05:27.402Z,59.50
2022-08-30T04:07:54.537Z,61.97
2022-08-30T04:10:22.006Z,68.50
2022-08-30T04:12:51.511Z,64.25
2022-08-30T04:15:19.673Z,68.13
2022-08-30T04:17:47.383Z,55.28
2022-08-30T04:20:14.828Z,64.97
2022-08-30T04:22:42.566Z,63.28
2022-08-30T04:25:15.726Z,65.85
2022-08-30T04:27:43.312Z,78.28
2022-08-30T04:30:10.867Z,78.05
2022-08-30T04:32:38.451Z,87.03
2022-08-30T04:35:06.340Z,97.93
2022-08-30T04:37:33.423Z,94.20
2022-08-30T04:40:00.927Z,61.58
2022-08-30T04:42:31.402Z,78.38
2022-08-30T04:45:00.327Z,74.78
2022-08-30T04:47:27.272Z,75.85
2022-08-30T04:49:57.476Z,75.15
2022-08-30T04:52:25.160Z,77.00
2022-08-30T04:54:58.446Z,66.05
2022-08-30T04:57:26.834Z,74.18
2022-08-30T04:59:54.555Z,72.40
2022-08-30T05:02:21.890Z,86.53
2022-08-30T05:05:07.181Z,80.50
2022-08-30T05:07:34.512Z,66.55
2022-08-30T05:10:01.529Z,83.47
2022-08-30T05:12:28.502Z,77.40
2022-08-30T05:14:58.771Z,82.90
2022-08-30T05:17:28.919Z,70.97
2022-08-30T05:19:55.710Z,63.05
2022-08-30T05:22:31.719Z,68.80
2022-08-30T05:24:59.950Z,65.82
2022-08-30T05:27:27.055Z,66.93
2022-08-30T05:29:54.131Z,62.08
2022-08-30T05:32:21.087Z,71.55
2022-08-30T05:34:48.172Z,74.13
2022-08-30T05:37:18.509Z,71.68
2022-08-30T05:39:51.135Z,75.03
2022-08-30T05:42:19.286Z,75.15
2022-08-30T05:44:46.175Z,63.17
2022-08-30T05:47:15.836Z,76.55
2022-08-30T05:49:42.890Z,70.75
2022-08-30T05:52:10.003Z,63.58
2022-08-30T05:54:36.853Z,81.25
2022-08-30T05:57:03.861Z,75.50
2022-08-30T05:59:31.768Z,63.78
2022-08-30T06:01:59.248Z,72.55
2022-08-30T06:04:36.905Z,68.32
2022-08-30T06:07:04.282Z,66.22
2022-08-30T06:09:31.406Z,73.90
2022-08-30T06:11:58.782Z,60.00
2022-08-30T06:14:26.238Z,68.35
2022-08-30T06:17:00.658Z,67.00
2022-08-30T06:19:27.914Z,58.40
2022-08-30T06:21:57.775Z,70.97
2022-08-30T06:24:35.818Z,63.47
2022-08-30T06:27:11.677Z,73.28
2022-08-30T06:29:38.785Z,71.55
2022-08-30T06:32:05.986Z,67.60
2022-08-30T06:34:37.236Z,70.97
2022-08-30T06:37:04.148Z,59.20
2022-08-30T06:39:31.297Z,58.13
2022-08-30T06:41:58.058Z,50.65
2022-08-30T06:44:25.216Z,71.90
2022-08-30T06:46:52.267Z,66.40
2022-08-30T06:49:19.285Z,60.35
2022-08-30T06:51:46.241Z,67.60
2022-08-30T06:54:13.231Z,60.50
2022-08-30T06:56:55.165Z,58.08
2022-08-30T06:59:25.700Z,54.58
2022-08-30T07:01:54.390Z,44.72
2022-08-30T07:04:21.437Z,70.85
2022-08-30T07:06:48.337Z,73.57
2022-08-30T07:09:15.389Z,64.28
2022-08-30T07:11:45.051Z,69.22
2022-08-30T07:14:12.482Z,77.97
2022-08-30T07:16:42.532Z,40.63
2022-08-30T07:19:09.705Z,49.45
2022-08-30T07:21:50.188Z,44.17
2022-08-30T07:24:17.470Z,52.72
2022-08-30T07:26:49.176Z,43.22
2022-08-30T07:29:21.512Z,35.05
2022-08-30T07:31:48.691Z,41.78
2022-08-30T07:34:23.408Z,38.33
2022-08-30T07:36:52.879Z,38.70
2022-08-30T07:39:20.686Z,39.10
2022-08-30T07:41:48.913Z,35.88
2022-08-30T07:44:16.009Z,44.60
2022-08-30T07:46:44.189Z,38.08
2022-08-30T07:49:13.287Z,44.58
2022-08-30T07:51:41.307Z,43.40
2022-08-30T07:54:08.397Z,39.30
2022-08-30T07:56:36.200Z,47.38
2022-08-30T07:59:03.514Z,37.97
2022-08-30T08:01:31.112Z,47.50
2022-08-30T08:03:59.451Z,32.55
2022-08-30T08:06:32.937Z,35.55
2022-08-30T08:09:02.766Z,33.70
2022-08-30T08:11:33.813Z,35.70
2022-08-30T08:14:02.310Z,46.75
2022-08-30T08:16:32.198Z,38.67
2022-08-30T08:18:59.318Z,41.58
2022-08-30T08:21:28.137Z,38.03
2022-08-30T08:23:56.052Z,32.63
2022-08-30T08:26:23.306Z,34.47
2022-08-30T08:28:50.917Z,37.53
2022-08-30T08:31:44.241Z,39.83
2022-08-30T08:34:15.077Z,36.03
2022-08-30T08:36:45.089Z,33.13
2022-08-30T08:39:12.233Z,30.90
2022-08-30T08:41:48.907Z,41.92
2022-08-30T08:44:24.964Z,38.47
2022-08-30T08:47:17.660Z,35.88
2022-08-30T08:49:47.423Z,29.05
2022-08-30T08:52:39.057Z,27.95
2022-08-30T08:55:12.362Z,26.23
2022-08-30T08:57:43.024Z,31.65
2022-08-30T09:00:13.140Z,31.02
2022-08-30T09:02:51.676Z,32.80
2022-08-30T09:05:26.219Z,20.60
2022-08-30T09:08:00.086Z,26.15
2022-08-30T09:10:47.057Z,22.38
2022-08-30T09:13:15.279Z,25.55
2022-08-30T09:15:45.866Z,17.75
2022-08-30T09:21:06.136Z,28.80
2022-08-30T09:23:33.233Z,26.10
2022-08-30T09:26:03.996Z,24.40
2022-08-30T09:28:36.163Z,29.23
2022-08-30T09:31:12.461Z,30.63
2022-08-30T09:33:39.963Z,23.55
2022-08-30T09:36:15.123Z,36.28
2022-08-30T09:38:42.399Z,24.60
2022-08-30T09:41:48.930Z,33.47
2022-08-30T09:44:30.742Z,28.13
2022-08-30T09:47:00.396Z,30.83
2022-08-30T09:49:39.245Z,35.42
2022-08-30T09:52:21.871Z,36.33
2022-08-30T09:55:04.179Z,39.42
2022-08-30T09:57:58.271Z,28.10
2022-08-30T10:00:48.321Z,24.05
2022-08-30T10:03:55.652Z,24.80
2022-08-30T10:06:33.299Z,34.10
2022-08-30T10:09:23.112Z,32.08
2022-08-30T10:12:17.000Z,33.63
2022-08-30T10:14:54.189Z,24.38
2022-08-30T10:17:44.899Z,29.13
2022-08-30T10:20:50.645Z,34.55
2022-08-30T10:23:22.301Z,26.77
2022-08-30T10:25:58.470Z,30.80
2022-08-30T10:28:40.060Z,22.77
2022-08-30T10:31:12.005Z,28.17
2022-08-30T10:33:43.671Z,31.88
2022-08-30T10:36:28.638Z,29.58
2022-08-30T10:38:56.392Z,29.63
2022-08-30T10:41:51.187Z,26.40
2022-08-30T10:44:48.541Z,29.65
2022-08-30T10:47:44.681Z,26.95
2022-08-30T10:51:09.183Z,28.83
2022-08-30T10:54:18.592Z,21.77
2022-08-30T10:56:48.946Z,26.05
2022-08-30T10:59:18.852Z,35.08
2022-08-30T11:01:50.035Z,21.15
2022-08-30T11:04:51.291Z,25.35
2022-08-30T11:07:53.682Z,30.27
2022-08-30T11:10:39.817Z,27.02
2022-08-30T11:13:22.224Z,22.05
2022-08-30T11:16:10.060Z,20.75
2022-08-30T11:18:57.382Z,27.55
2022-08-30T11:24:13.492Z,25.48
2022-08-30T11:26:49.346Z,18.52
2022-08-30T11:29:37.801Z,20.52
2022-08-30T11:32:14.469Z,28.15
2022-08-30T11:34:47.327Z,20.23
2022-08-30T11:37:37.311Z,25.77
2022-08-30T11:40:07.090Z,22.13
2022-08-30T11:42:48.146Z,22.85
2022-08-30T11:45:37.649Z,18.38
2022-08-30T11:48:10.638Z,21.70
2022-08-30T11:50:56.431Z,23.70
2022-08-30T11:53:30.753Z,30.48
2022-08-30T11:56:26.740Z,16.20
2022-08-30T11:59:05.263Z,18.23
2022-08-30T12:01:50.590Z,21.15
2022-08-30T12:04:21.497Z,19.52
2022-08-30T12:06:53.638Z,23.38
2022-08-30T12:09:30.171Z,24.48
2022-08-30T12:12:10.483Z,25.17
2022-08-30T12:14:40.973Z,23.08
2022-08-30T12:17:45.466Z,23.95
2022-08-30T12:20:18.635Z,17.73
2022-08-30T12:22:46.561Z,19.45
2022-08-30T12:25:22.608Z,29.88
2022-08-30T12:27:50.349Z,18.80
2022-08-30T12:30:25.217Z,18.45
2022-08-30T12:32:53.101Z,17.90
2022-08-30T12:35:28.103Z,17.90
2022-08-30T12:38:05.961Z,21.67
2022-08-30T12:40:34.517Z,24.67
2022-08-30T12:43:04.849Z,38.53
2022-08-30T12:45:39.358Z,25.35
2022-08-30T12:48:09.451Z,21.05
2022-08-30T12:50:53.563Z,26.02
2022-08-30T12:53:47.268Z,29.23
2022-08-30T12:56:30.420Z,25.45
2022-08-30T12:59:05.710Z,22.83
2022-08-30T13:01:37.284Z,29.10
2022-08-30T13:04:22.626Z,21.73
2022-08-30T13:06:51.770Z,19.73
2022-08-30T13:09:33.310Z,19.40
2022-08-30T13:12:06.564Z,22.88
2022-08-30T13:14:42.295Z,26.15
2022-08-30T13:17:13.091Z,24.38
2022-08-30T13:19:42.373Z,22.85
2022-08-30T13:22:28.926Z,39.00
2022-08-30T13:24:56.054Z,27.75
2022-08-30T13:27:23.749Z,25.55
2022-08-30T13:29:50.945Z,30.25
2022-08-30T13:32:18.144Z,27.77
2022-08-30T13:34:45.625Z,31.98
2022-08-30T13:40:04.752Z,25.95
2022-08-30T13:42:32.221Z,34.65
2022-08-30T13:44:59.219Z,26.27
2022-08-30T13:47:34.766Z,31.83
2022-08-30T13:50:02.257Z,31.13
2022-08-30T13:52:29.049Z,30.38
2022-08-30T13:54:57.445Z,29.95
2022-08-30T14:00:19.233Z,29.08
2022-08-30T14:02:54.259Z,32.30
2022-08-30T14:11:15.847Z,36.78
2022-08-30T14:16:33.213Z,31.10
2022-08-30T14:19:00.732Z,22.60
2022-08-30T14:21:28.059Z,27.52
2022-08-30T14:23:57.722Z,27.83
2022-08-30T14:26:33.467Z,32.88
2022-08-30T14:29:06.120Z,35.05
2022-08-30T14:31:37.031Z,35.50
2022-08-30T14:34:04.360Z,29.13
2022-08-30T14:36:32.837Z,26.90
2022-08-30T14:39:00.297Z,29.85
2022-08-30T14:41:27.277Z,39.90
2022-08-30T14:43:54.207Z,36.33
2022-08-30T14:46:22.136Z,28.85
2022-08-30T14:48:50.379Z,30.42
2022-08-30T14:51:19.569Z,40.85
2022-08-30T14:53:46.710Z,34.50
2022-08-30T14:56:19.523Z,31.70
2022-08-30T14:58:49.608Z,34.47
2022-08-30T15:01:17.152Z,37.28
2022-08-30T15:03:44.479Z,35.50
2022-08-30T15:06:11.705Z,38.08
2022-08-30T15:08:39.404Z,38.30
2022-08-30T15:11:13.673Z,29.77
2022-08-30T15:13:42.538Z,39.78
2022-08-30T15:16:31.231Z,33.95
2022-08-30T15:18:58.998Z,32.25
2022-08-30T15:21:30.850Z,26.17
2022-08-30T15:23:59.033Z,36.63
2022-08-30T15:26:28.018Z,38.13
2022-08-30T15:28:55.381Z,28.88
2022-08-30T15:31:25.030Z,27.00
2022-08-30T15:33:51.757Z,33.97
2022-08-30T15:36:18.599Z,37.10
2022-08-30T15:38:45.457Z,29.02
2022-08-30T15:41:13.328Z,34.03
2022-08-30T15:43:43.686Z,28.77
2022-08-30T15:46:38.386Z,32.50
2022-08-30T15:49:22.328Z,41.40
2022-08-30T15:51:51.609Z,27.92
2022-08-30T15:54:22.647Z,32.35
2022-08-30T15:56:49.513Z,33.47
2022-08-30T15:59:17.600Z,33.60
2022-08-30T16:01:47.396Z,29.15
2022-08-30T16:04:18.520Z,29.17
2022-08-30T16:06:45.999Z,43.25
2022-08-30T16:09:12.708Z,34.15
2022-08-30T16:11:39.997Z,27.88
2022-08-30T16:14:08.069Z,29.10
2022-08-30T16:16:39.955Z,33.42
2022-08-30T16:19:10.358Z,33.08
2022-08-30T16:21:37.511Z,35.13
2022-08-30T16:24:06.004Z,26.25
2022-08-30T16:26:33.893Z,31.45
2022-08-30T16:29:00.714Z,34.60
2022-08-30T16:31:32.331Z,34.90
2022-08-30T16:34:02.400Z,25.00
2022-08-30T16:36:30.777Z,27.00
2022-08-30T16:38:58.485Z,33.67
2022-08-30T16:41:28.153Z,35.20
2022-08-30T16:43:55.438Z,35.72
2022-08-30T16:46:27.127Z,31.52
2022-08-30T16:48:57.133Z,34.95
2022-08-30T16:51:26.842Z,42.15
2022-08-30T16:53:58.071Z,44.20
2022-08-30T16:56:26.989Z,29.48
2022-08-30T16:59:01.266Z,33.03
2022-08-30T17:01:34.747Z,38.17
2022-08-30T17:04:02.886Z,44.03
2022-08-30T17:06:30.126Z,35.97
2022-08-30T17:08:57.040Z,31.17
2022-08-30T17:11:24.509Z,25.95
2022-08-30T17:13:51.525Z,36.88
2022-08-30T17:16:27.386Z,32.30
2022-08-30T17:18:55.995Z,36.75
2022-08-30T17:21:27.213Z,39.63
2022-08-30T17:23:54.382Z,42.03
2022-08-30T17:26:28.087Z,34.83
2022-08-30T17:29:07.767Z,49.63
2022-08-30T17:31:53.198Z,42.70
2022-08-30T17:34:21.899Z,41.70
2022-08-30T17:36:54.560Z,36.08
2022-08-30T17:39:22.058Z,39.53
2022-08-30T17:41:51.506Z,29.25
2022-08-30T17:44:20.081Z,36.17
2022-08-30T17:46:46.898Z,43.17
2022-08-30T17:49:13.745Z,35.05
2022-08-30T17:51:42.979Z,45.25
2022-08-30T17:54:12.070Z,45.97
2022-08-30T17:56:40.291Z,46.08
2022-08-30T17:59:09.116Z,34.78
2022-08-30T18:01:36.445Z,38.67
2022-08-30T18:04:06.045Z,47.92
2022-08-30T18:06:34.554Z,38.03
2022-08-30T18:09:02.498Z,38.63
2022-08-30T18:11:29.369Z,38.50
2022-08-30T18:13:56.063Z,40.78
2022-08-30T18:16:26.409Z,34.92
2022-08-30T18:18:57.133Z,35.45
2022-08-30T18:21:25.310Z,38.28
2022-08-30T18:23:52.399Z,40.72
2022-08-30T18:26:19.495Z,32.88
2022-08-30T18:28:51.216Z,36.38
2022-08-30T18:31:17.907Z,34.42
2022-08-30T18:33:44.721Z,32.58
2022-08-30T18:36:11.505Z,40.30
2022-08-30T18:38:39.537Z,45.95
2022-08-30T18:41:09.144Z,31.38
2022-08-30T18:43:37.197Z,33.33
2022-08-30T18:46:05.997Z,41.60
2022-08-30T18:53:29.349Z,41.55
2022-08-30T18:55:57.108Z,28.60
2022-08-30T18:58:23.945Z,37.35
2022-08-30T19:00:50.845Z,30.23
2022-08-30T19:03:18.877Z,30.75
2022-08-30T19:05:46.174Z,34.13
2022-08-30T19:08:13.726Z,35.20
2022-08-30T19:10:41.028Z,36.13
2022-08-30T19:13:08.186Z,34.75
2022-08-30T19:15:35.533Z,41.10
2022-08-30T19:18:16.708Z,36.97
2022-08-30T19:20:45.449Z,35.78
2022-08-30T19:23:12.641Z,33.08
2022-08-30T19:25:44.255Z,39.05
2022-08-30T19:28:12.072Z,33.78
2022-08-30T19:30:39.634Z,28.05
2022-08-30T19:33:06.379Z,36.70
2022-08-30T19:35:33.909Z,34.40
2022-08-30T19:38:00.920Z,44.17
2022-08-30T19:40:28.415Z,27.77
2022-08-30T19:42:55.189Z,32.95
2022-08-30T19:45:23.183Z,37.08
2022-08-30T19:47:50.620Z,37.47
2022-08-30T19:50:17.826Z,35.90
2022-08-30T19:52:48.414Z,32.90
2022-08-30T19:55:23.801Z,39.00
2022-08-30T19:57:55.056Z,32.30
2022-08-30T20:00:23.502Z,35.95
2022-08-30T20:02:51.142Z,34.50
2022-08-30T20:05:18.370Z,27.40
2022-08-30T20:07:45.140Z,31.55
2022-08-30T20:10:15.216Z,35.92
2022-08-30T20:12:46.890Z,35.28
2022-08-30T20:15:17.234Z,36.97
2022-08-30T20:20:33.547Z,31.67
2022-08-30T20:23:03.107Z,31.60
2022-08-30T20:25:30.868Z,36.05
2022-08-30T20:27:59.427Z,40.45
2022-08-30T20:30:26.172Z,38.05
2022-08-30T20:32:54.075Z,27.75
2022-08-30T20:35:20.886Z,38.65
2022-08-30T20:37:47.736Z,40.10
2022-08-30T20:40:15.955Z,33.65
2022-08-30T20:42:45.780Z,36.08
2022-08-30T20:45:15.584Z,37.65
2022-08-30T20:47:43.067Z,45.78
2022-08-30T20:50:13.771Z,37.88
2022-08-30T20:52:40.897Z,33.60
2022-08-30T20:55:08.336Z,36.05
2022-08-30T20:57:35.069Z,59.40
2022-08-30T21:00:02.111Z,62.15
2022-08-30T21:02:28.862Z,61.28
2022-08-30T21:04:55.779Z,57.33
2022-08-30T21:07:22.523Z,61.00
2022-08-30T21:09:50.251Z,45.97
2022-08-30T21:12:16.973Z,39.88
2022-08-30T21:14:43.628Z,35.40
2022-08-30T21:17:10.321Z,37.70
2022-08-30T21:19:40.873Z,45.00
2022-08-30T21:22:10.525Z,36.35
2022-08-30T21:24:37.283Z,33.90
2022-08-30T21:27:04.135Z,37.22
2022-08-30T21:29:33.005Z,40.95
2022-08-30T21:31:59.858Z,38.00
2022-08-30T21:34:26.681Z,33.33
2022-08-30T21:36:53.637Z,36.72
2022-08-30T21:39:23.202Z,33.28
2022-08-30T21:41:53.346Z,33.30
2022-08-30T21:44:22.138Z,34.25
2022-08-30T21:49:18.188Z,27.83
2022-08-30T21:54:14.076Z,36.88
2022-08-30T21:56:42.659Z,33.40
2022-08-30T21:59:09.754Z,29.80
2022-08-30T22:01:37.714Z,33.88
2022-08-30T22:04:07.585Z,33.47
2022-08-30T22:06:35.469Z,30.80
2022-08-30T22:09:04.647Z,28.00
2022-08-30T22:11:32.698Z,24.00
2022-08-30T22:13:59.667Z,28.60
2022-08-30T22:16:27.890Z,25.65
2022-08-30T22:18:54.717Z,25.73
2022-08-30T22:21:25.489Z,23.25
2022-08-30T22:23:52.355Z,30.10
2022-08-30T22:26:20.850Z,32.50
2022-08-30T22:28:47.844Z,24.88
2022-08-30T22:31:15.806Z,30.20
2022-08-30T22:33:43.308Z,34.15
2022-08-30T22:36:13.288Z,34.08
2022-08-30T22:38:40.965Z,26.45
2022-08-30T22:41:21.094Z,30.13
2022-08-30T22:43:52.817Z,30.67
2022-08-30T22:46:21.570Z,28.63
2022-08-30T22:49:02.384Z,26.42
2022-08-30T22:51:29.161Z,31.17
2022-08-30T22:53:55.985Z,24.65
2022-08-30T22:56:25.725Z,28.10
2022-08-30T22:58:53.739Z,39.17
2022-08-30T23:01:30.396Z,30.20
2022-08-30T23:03:57.917Z,34.60
2022-08-30T23:06:25.397Z,28.88
2022-08-30T23:08:52.125Z,25.90
2022-08-30T23:11:19.084Z,27.05
2022-08-30T23:13:46.099Z,35.08
2022-08-30T23:16:14.605Z,32.38
2022-08-30T23:18:42.797Z,28.10
2022-08-30T23:21:18.047Z,34.05
2022-08-30T23:24:03.490Z,34.03
2022-08-30T23:26:48.941Z,31.90
2022-08-30T23:29:34.401Z,28.95
2022-08-30T23:32:19.572Z,30.38
2022-08-30T23:35:04.806Z,31.30
2022-08-30T23:37:53.146Z,32.78
2022-08-30T23:40:40.205Z,36.40
2022-08-30T23:43:26.319Z,30.17
2022-08-30T23:46:19.305Z,29.77
2022-08-30T23:51:50.882Z,27.20
2022-08-30T23:54:36.281Z,28.45
2022-08-30T23:57:21.667Z,25.80
